You are listening to:
SABE Gnd/Twr/App - Buenos Aires, Argentina

SABE 010100Z 10019KT 9999 FEW015 SCT050 22/19 Q1016 NOSIG

If stream doesn't start automatically press the play button
If stream stops then reload player then press play